Time;durP1;ratioP1;P1;durP2;ratioP2;P2;SDS_P1;SDS_P2;PMS_P1;PMS_P2;Temp;Humidity;BMP_temperature;BMP_pressure;BME280_temperature;BME280_humidity;BME280_pressure;Samples;Min_cycle;Max_cycle;Signal;HPM_P1;HPM_P2
2022/08/19 00:01:27;;;;;;;;;;;17.40;99.90;;;;;;5107728;28;19908;-74
2022/08/19 00:03:52;;;;;;;;;;;17.50;99.90;;;;;;5074812;28;19921;-74
2022/08/19 00:06:18;;;;;;;;;;;17.40;99.90;;;;;;5074760;28;19915;-75
2022/08/19 00:08:44;;;;;;;;;;;17.30;99.90;;;;;;5072846;28;19921;-74
2022/08/19 00:11:10;;;;;;;;;;;17.30;99.90;;;;;;5088111;28;19944;-74
2022/08/19 00:13:36;;;;;;;;;;;17.30;99.90;;;;;;5073093;28;19966;-74
2022/08/19 00:16:02;;;;;;;;;;;17.20;99.90;;;;;;5072669;28;20301;-74
2022/08/19 00:18:27;;;;;;;;;;;17.30;99.90;;;;;;5072912;28;19920;-74
2022/08/19 00:20:53;;;;;;;;;;;17.30;99.90;;;;;;5075732;28;19913;-74
2022/08/19 00:23:18;;;;;;;;;;;17.20;99.90;;;;;;5071858;28;19917;-76
2022/08/19 00:25:44;;;;;;;;;;;17.20;99.90;;;;;;5076104;28;19959;-74
2022/08/19 00:28:10;;;;;;;;;;;17.10;99.90;;;;;;5074655;28;19913;-74
2022/08/19 00:30:36;;;;;;;;;;;17.00;99.90;;;;;;5074689;28;20015;-74
2022/08/19 00:33:02;;;;;;;;;;;16.80;99.90;;;;;;5071295;28;19916;-74
2022/08/19 00:35:27;;;;;;;;;;;16.80;99.90;;;;;;5075323;28;20375;-74
2022/08/19 00:37:53;;;;;;;;;;;16.80;99.90;;;;;;5075783;28;19920;-74
2022/08/19 00:40:19;;;;;;;;;;;16.90;99.90;;;;;;5073388;28;19961;-76
2022/08/19 00:42:45;;;;;;;;;;;17.00;99.90;;;;;;5075011;28;19916;-74
2022/08/19 00:45:13;;;;;;;;;;;17.10;99.90;;;;;;5073146;28;19931;-74
2022/08/19 00:47:38;;;;;;;;;;;17.10;99.90;;;;;;5070536;28;19921;-74
2022/08/19 00:50:04;;;;;;;;;;;17.10;99.90;;;;;;5072206;28;19912;-75
2022/08/19 00:52:32;;;;;;;;;;;17.10;99.90;;;;;;5073663;28;20023;-74
2022/08/19 00:54:59;;;;;;;;;;;17.10;99.90;;;;;;5073942;28;19912;-74
2022/08/19 00:57:29;;;;;;;;;;;17.10;99.90;;;;;;5074118;28;19917;-75
2022/08/19 00:59:56;;;;;;;;;;;17.20;99.90;;;;;;5107564;28;19999;-74
2022/08/19 01:02:21;;;;;;;;;;;17.20;99.90;;;;;;5064899;28;19909;-74
2022/08/19 01:04:47;;;;;;;;;;;17.10;99.90;;;;;;5065952;28;20367;-76
2022/08/19 01:07:12;;;;;;;;;;;17.00;99.90;;;;;;5073969;28;19920;-74
2022/08/19 01:09:38;;;;;;;;;;;17.00;99.90;;;;;;5073491;28;19908;-75
2022/08/19 01:12:04;;;;;;;;;;;17.00;99.90;;;;;;5068837;28;19967;-74
2022/08/19 01:14:30;;;;;;;;;;;17.00;99.90;;;;;;5071820;28;19952;-75
2022/08/19 01:16:56;;;;;;;;;;;17.00;99.90;;;;;;5072465;28;19927;-75
2022/08/19 01:19:37;;;;;;;;;;;16.90;99.90;;;;;;5070912;28;19923;-77
2022/08/19 01:22:11;;;;;;;;;;;16.80;99.90;;;;;;5072609;28;20329;-75
2022/08/19 01:24:36;;;;;;;;;;;16.70;99.90;;;;;;5074949;28;19912;-75
2022/08/19 01:27:06;;;;;;;;;;;16.60;99.90;;;;;;5074277;28;19969;-75
2022/08/19 01:29:31;;;;;;;;;;;16.60;99.90;;;;;;5073951;28;20315;-75
2022/08/19 01:31:57;;;;;;;;;;;16.50;99.90;;;;;;5073168;28;19923;-75
2022/08/19 01:34:23;;;;;;;;;;;16.40;99.90;;;;;;5074905;28;20303;-74
2022/08/19 01:36:49;;;;;;;;;;;16.40;99.90;;;;;;5065455;28;20278;-76
2022/08/19 01:39:16;;;;;;;;;;;16.50;99.90;;;;;;5068406;28;20008;-74
2022/08/19 01:41:42;;;;;;;;;;;16.60;99.90;;;;;;5059122;28;19960;-77
2022/08/19 01:44:09;;;;;;;;;;;16.60;99.90;;;;;;5069444;28;19985;-76
2022/08/19 01:46:35;;;;;;;;;;;16.50;99.90;;;;;;5072010;28;19962;-75
2022/08/19 01:49:03;;;;;;;;;;;16.30;99.90;;;;;;5067913;28;20311;-75
2022/08/19 01:51:30;;;;;;;;;;;16.40;99.90;;;;;;5072926;28;19966;-75
2022/08/19 01:53:55;;;;;;;;;;;16.40;99.90;;;;;;5074600;28;19908;-75
2022/08/19 01:56:22;;;;;;;;;;;16.40;99.90;;;;;;5071522;28;20678;-74
2022/08/19 01:58:55;;;;;;;;;;;16.40;99.90;;;;;;5074179;28;19917;-74
2022/08/19 02:01:21;;;;;;;;;;;16.40;99.90;;;;;;5073751;28;19908;-76
2022/08/19 02:03:47;;;;;;;;;;;16.40;99.90;;;;;;5072015;28;20429;-75
2022/08/19 02:06:13;;;;;;;;;;;16.30;99.90;;;;;;5072143;28;19932;-75
2022/08/19 02:08:39;;;;;;;;;;;16.40;99.90;;;;;;5073370;28;19935;-75
2022/08/19 02:11:05;;;;;;;;;;;16.40;99.90;;;;;;5065613;28;19951;-75
2022/08/19 02:13:31;;;;;;;;;;;16.30;99.90;;;;;;5070947;28;19913;-75
2022/08/19 02:15:57;;;;;;;;;;;16.20;99.90;;;;;;5074227;28;20266;-75
2022/08/19 02:18:23;;;;;;;;;;;16.30;99.90;;;;;;5072930;28;19928;-75
2022/08/19 02:20:48;;;;;;;;;;;16.30;99.90;;;;;;5074164;28;20312;-75
2022/08/19 02:23:14;;;;;;;;;;;16.30;99.90;;;;;;5070768;28;20215;-74
2022/08/19 02:25:40;;;;;;;;;;;16.30;99.90;;;;;;5074123;28;20219;-75
2022/08/19 02:28:06;;;;;;;;;;;16.20;99.90;;;;;;5073127;28;19917;-75
2022/08/19 02:30:32;;;;;;;;;;;16.20;99.90;;;;;;5074507;28;19912;-74
2022/08/19 02:32:57;;;;;;;;;;;16.10;99.90;;;;;;5079814;28;20284;-74
2022/08/19 02:35:23;;;;;;;;;;;16.20;99.90;;;;;;5077903;28;19925;-75
2022/08/19 02:40:34;;;;;;;;;;;16.20;99.90;;;;;;5076258;28;20426;-75
2022/08/19 02:43:00;;;;;;;;;;;16.20;99.90;;;;;;5079548;28;20266;-74
2022/08/19 02:45:26;;;;;;;;;;;16.20;99.90;;;;;;5075242;28;20200;-75
2022/08/19 02:47:52;;;;;;;;;;;16.20;99.90;;;;;;5074236;28;19926;-74
2022/08/19 02:50:18;;;;;;;;;;;16.20;99.90;;;;;;5079295;28;19912;-74
2022/08/19 02:52:44;;;;;;;;;;;16.30;99.90;;;;;;5080435;28;19913;-76
2022/08/19 02:55:10;;;;;;;;;;;16.30;99.90;;;;;;5077984;28;19913;-75
2022/08/19 02:57:35;;;;;;;;;;;16.40;99.90;;;;;;5078651;28;19913;-74
2022/08/19 03:00:03;;;;;;;;;;;16.50;99.90;;;;;;5080273;28;19912;-75
2022/08/19 03:02:30;;;;;;;;;;;16.50;99.90;;;;;;5080145;28;19912;-74
2022/08/19 03:04:55;;;;;;;;;;;16.50;99.90;;;;;;5077629;28;20238;-74
2022/08/19 03:07:21;;;;;;;;;;;16.40;99.90;;;;;;5079283;28;19916;-74
2022/08/19 03:09:46;;;;;;;;;;;16.30;99.90;;;;;;5079826;28;19913;-76
2022/08/19 03:12:13;;;;;;;;;;;16.30;99.90;;;;;;5076485;28;20060;-74
2022/08/19 03:14:38;;;;;;;;;;;16.20;99.90;;;;;;5076654;28;20703;-75
2022/08/19 03:17:04;;;;;;;;;;;16.20;99.90;;;;;;5072440;28;20019;-76
2022/08/19 03:19:31;;;;;;;;;;;16.10;99.90;;;;;;5076887;28;20330;-75
2022/08/19 03:21:57;;;;;;;;;;;16.10;99.90;;;;;;5079543;28;19913;-75
2022/08/19 03:24:23;;;;;;;;;;;16.00;99.90;;;;;;5078698;28;19912;-75
2022/08/19 03:26:51;;;;;;;;;;;16.00;99.90;;;;;;5078235;28;19916;-76
2022/08/19 03:29:17;;;;;;;;;;;15.90;99.90;;;;;;5078857;28;19912;-75
2022/08/19 03:31:43;;;;;;;;;;;15.80;99.90;;;;;;5078705;28;19923;-75
2022/08/19 03:34:11;;;;;;;;;;;15.90;99.90;;;;;;5080187;28;20002;-75
2022/08/19 03:36:37;;;;;;;;;;;16.00;99.90;;;;;;5079213;28;20090;-75
2022/08/19 03:39:03;;;;;;;;;;;16.00;99.90;;;;;;5080084;28;19920;-75
2022/08/19 03:41:36;;;;;;;;;;;16.10;99.90;;;;;;5077378;28;19920;-74
2022/08/19 03:44:01;;;;;;;;;;;16.10;99.90;;;;;;5074705;28;19958;-74
2022/08/19 03:46:28;;;;;;;;;;;16.00;99.90;;;;;;5075381;28;19913;-74
2022/08/19 03:48:55;;;;;;;;;;;16.00;99.90;;;;;;5068340;28;19925;-75
2022/08/19 03:51:24;;;;;;;;;;;15.90;99.90;;;;;;5068845;28;19909;-75
2022/08/19 03:53:50;;;;;;;;;;;15.90;99.90;;;;;;5076249;28;19948;-75
2022/08/19 03:56:16;;;;;;;;;;;15.80;99.90;;;;;;5074701;28;19943;-74
2022/08/19 03:58:41;;;;;;;;;;;15.70;99.90;;;;;;5074969;28;19917;-76
2022/08/19 04:01:08;;;;;;;;;;;15.70;99.90;;;;;;5074274;28;19920;-76
2022/08/19 04:03:35;;;;;;;;;;;15.70;99.90;;;;;;5074334;28;19924;-75
2022/08/19 04:06:15;;;;;;;;;;;15.70;99.90;;;;;;5074652;28;20219;-76
2022/08/19 04:08:42;;;;;;;;;;;15.80;99.90;;;;;;5075831;28;19920;-74
2022/08/19 04:11:15;;;;;;;;;;;15.80;99.90;;;;;;5069569;28;19916;-75
2022/08/19 04:13:41;;;;;;;;;;;15.70;99.90;;;;;;5073667;28;19920;-75
2022/08/19 04:16:08;;;;;;;;;;;15.70;99.90;;;;;;5076154;28;19927;-76
2022/08/19 04:18:34;;;;;;;;;;;15.70;99.90;;;;;;5075102;28;20068;-75
2022/08/19 04:21:00;;;;;;;;;;;15.70;99.90;;;;;;5074042;28;19950;-76
2022/08/19 04:23:27;;;;;;;;;;;15.80;99.90;;;;;;5073778;28;19912;-75
2022/08/19 04:25:53;;;;;;;;;;;15.80;99.90;;;;;;5075624;28;19963;-75
2022/08/19 04:28:19;;;;;;;;;;;15.90;99.90;;;;;;5074587;28;20011;-75
2022/08/19 04:30:47;;;;;;;;;;;15.80;99.90;;;;;;5097979;28;20011;-74
2022/08/19 04:33:15;;;;;;;;;;;15.80;99.90;;;;;;5065198;28;19917;-75
2022/08/19 04:35:42;;;;;;;;;;;15.80;99.90;;;;;;5055588;28;19913;-75
2022/08/19 04:38:08;;;;;;;;;;;15.80;99.90;;;;;;5061436;28;20271;-77
2022/08/19 04:43:18;;;;;;;;;;;15.70;99.90;;;;;;5075535;28;20005;-75
2022/08/19 04:45:44;;;;;;;;;;;15.60;99.90;;;;;;5069731;28;20334;-75
2022/08/19 04:48:10;;;;;;;;;;;15.50;99.90;;;;;;5069381;28;19938;-76
2022/08/19 04:50:35;;;;;;;;;;;15.50;99.90;;;;;;5073967;28;19951;-74
2022/08/19 04:53:01;;;;;;;;;;;15.60;99.90;;;;;;5073237;28;19963;-75
2022/08/19 04:55:26;;;;;;;;;;;15.70;99.90;;;;;;5074231;28;20337;-75
2022/08/19 04:57:53;;;;;;;;;;;15.60;99.90;;;;;;5072677;28;20267;-76
2022/08/19 05:00:18;;;;;;;;;;;15.60;99.90;;;;;;5073168;28;19917;-75
2022/08/19 05:02:44;;;;;;;;;;;15.60;99.90;;;;;;5073595;28;19916;-74
2022/08/19 05:05:10;;;;;;;;;;;15.70;99.90;;;;;;5075241;28;19909;-75
2022/08/19 05:07:35;;;;;;;;;;;15.80;99.90;;;;;;5071805;28;19920;-74
2022/08/19 05:10:02;;;;;;;;;;;15.80;99.90;;;;;;5074622;28;20343;-73
2022/08/19 05:12:28;;;;;;;;;;;15.90;99.90;;;;;;5073966;28;19919;-73
2022/08/19 05:14:54;;;;;;;;;;;16.00;99.90;;;;;;5066411;28;20020;-74
2022/08/19 05:17:19;;;;;;;;;;;16.00;99.90;;;;;;5074300;28;20019;-74
2022/08/19 05:22:32;;;;;;;;;;;16.10;99.90;;;;;;5068629;28;19981;-75
2022/08/19 05:24:58;;;;;;;;;;;16.10;99.90;;;;;;5071932;28;19916;-74
2022/08/19 05:27:24;;;;;;;;;;;16.20;99.90;;;;;;5072633;28;20299;-74
2022/08/19 05:29:49;;;;;;;;;;;16.30;99.90;;;;;;5064253;28;20238;-74
2022/08/19 05:32:15;;;;;;;;;;;16.30;99.90;;;;;;5073277;28;19912;-73
2022/08/19 05:34:41;;;;;;;;;;;16.40;99.90;;;;;;5073478;28;19994;-73
2022/08/19 05:37:08;;;;;;;;;;;16.50;99.90;;;;;;5106599;28;19920;-73
2022/08/19 05:39:34;;;;;;;;;;;16.60;99.90;;;;;;5072727;28;19917;-73
2022/08/19 05:42:01;;;;;;;;;;;16.60;99.90;;;;;;5106945;28;20306;-73
2022/08/19 05:44:31;;;;;;;;;;;16.70;99.90;;;;;;5070365;28;19916;-73
2022/08/19 05:46:57;;;;;;;;;;;16.90;99.90;;;;;;5069903;28;19944;-73
2022/08/19 05:49:23;;;;;;;;;;;17.00;99.90;;;;;;5074030;28;20010;-73
2022/08/19 05:51:49;;;;;;;;;;;17.10;99.90;;;;;;5071006;28;20419;-73
2022/08/19 05:54:15;;;;;;;;;;;17.30;99.90;;;;;;5073095;28;19916;-73
2022/08/19 05:56:41;;;;;;;;;;;17.40;99.90;;;;;;5071325;28;19927;-74
2022/08/19 05:59:10;;;;;;;;;;;17.40;99.90;;;;;;5070109;28;19917;-74
2022/08/19 06:01:36;;;;;;;;;;;17.50;99.90;;;;;;5068384;28;20176;-74
2022/08/19 06:04:02;;;;;;;;;;;17.70;99.90;;;;;;5071614;28;19923;-75
2022/08/19 06:06:28;;;;;;;;;;;17.80;99.90;;;;;;5070994;28;19916;-74
2022/08/19 06:08:54;;;;;;;;;;;18.00;99.90;;;;;;5069584;28;20227;-75
2022/08/19 06:11:24;;;;;;;;;;;18.10;99.90;;;;;;5070261;28;19916;-75
2022/08/19 06:13:52;;;;;;;;;;;18.10;99.90;;;;;;5070587;28;19974;-74
2022/08/19 06:16:22;;;;;;;;;;;18.20;99.90;;;;;;5070434;28;19920;-75
2022/08/19 06:18:56;;;;;;;;;;;18.20;99.90;;;;;;5071464;28;19917;-75
2022/08/19 06:21:23;;;;;;;;;;;18.30;99.90;;;;;;5070066;28;19927;-77
2022/08/19 06:23:50;;;;;;;;;;;18.30;99.90;;;;;;5070252;28;19916;-78
2022/08/19 06:26:16;;;;;;;;;;;18.40;99.90;;;;;;5071034;28;19932;-75
2022/08/19 06:28:44;;;;;;;;;;;18.40;99.90;;;;;;5069441;28;19920;-75
2022/08/19 06:31:10;;;;;;;;;;;18.50;99.90;;;;;;5071329;28;19916;-76
2022/08/19 06:33:37;;;;;;;;;;;18.50;99.90;;;;;;5072354;28;20003;-76
2022/08/19 06:36:02;;;;;;;;;;;18.60;99.90;;;;;;5071552;28;19924;-75
2022/08/19 06:38:28;;;;;;;;;;;18.60;99.90;;;;;;5070962;28;19921;-75
2022/08/19 06:41:01;;;;;;;;;;;18.60;99.90;;;;;;5071212;28;19916;-75
2022/08/19 06:43:26;;;;;;;;;;;18.60;99.90;;;;;;5072390;28;19937;-75
2022/08/19 06:45:52;;;;;;;;;;;18.70;99.90;;;;;;5071116;28;19920;-75
2022/08/19 06:48:18;;;;;;;;;;;18.70;99.90;;;;;;5071354;28;20366;-75
2022/08/19 06:50:43;;;;;;;;;;;18.80;99.90;;;;;;5071637;28;19921;-75
2022/08/19 06:53:09;;;;;;;;;;;18.90;99.90;;;;;;5072123;28;20003;-74
2022/08/19 06:55:34;;;;;;;;;;;18.90;99.90;;;;;;5072719;28;19999;-75
2022/08/19 06:58:04;;;;;;;;;;;18.90;99.90;;;;;;5071972;28;20223;-78
2022/08/19 07:00:29;;;;;;;;;;;18.90;99.90;;;;;;5071037;28;19962;-75
2022/08/19 07:02:55;;;;;;;;;;;18.90;99.90;;;;;;5071433;28;19912;-75
2022/08/19 07:05:20;;;;;;;;;;;19.00;99.90;;;;;;5071002;28;19966;-74
2022/08/19 07:07:46;;;;;;;;;;;19.00;99.90;;;;;;5071412;28;19916;-74
2022/08/19 07:10:12;;;;;;;;;;;19.00;99.90;;;;;;5071277;28;19916;-75
2022/08/19 07:12:37;;;;;;;;;;;19.10;99.90;;;;;;5071231;28;19920;-75
2022/08/19 07:15:04;;;;;;;;;;;19.10;99.90;;;;;;5069808;28;19924;-79
2022/08/19 07:17:30;;;;;;;;;;;19.20;99.90;;;;;;5072077;28;19924;-74
2022/08/19 07:19:56;;;;;;;;;;;19.20;99.90;;;;;;5073723;28;19962;-75
2022/08/19 07:22:24;;;;;;;;;;;19.30;99.90;;;;;;5075434;28;19916;-75
2022/08/19 07:24:53;;;;;;;;;;;19.30;99.90;;;;;;5074473;28;19924;-75
2022/08/19 07:27:19;;;;;;;;;;;19.30;99.90;;;;;;5074192;28;19928;-75
2022/08/19 07:29:45;;;;;;;;;;;19.30;99.90;;;;;;5073216;28;19919;-75
2022/08/19 07:32:11;;;;;;;;;;;19.40;99.90;;;;;;5074081;28;19917;-75
2022/08/19 07:34:37;;;;;;;;;;;19.40;99.90;;;;;;5075715;28;19916;-75
2022/08/19 07:37:06;;;;;;;;;;;19.50;99.90;;;;;;5072460;28;19920;-75
2022/08/19 07:39:33;;;;;;;;;;;19.50;99.90;;;;;;5071498;28;19943;-75
2022/08/19 07:41:59;;;;;;;;;;;19.60;99.90;;;;;;5072956;28;19979;-75
2022/08/19 07:44:25;;;;;;;;;;;19.60;99.90;;;;;;5074766;28;19913;-75
2022/08/19 07:46:52;;;;;;;;;;;19.70;99.90;;;;;;5073047;28;19923;-74
2022/08/19 07:49:19;;;;;;;;;;;19.70;99.90;;;;;;5071173;28;20305;-76
2022/08/19 07:51:59;;;;;;;;;;;19.80;99.90;;;;;;5073060;28;19917;-75
2022/08/19 07:54:24;;;;;;;;;;;19.90;99.90;;;;;;5073709;28;19924;-75
2022/08/19 07:56:50;;;;;;;;;;;20.00;99.90;;;;;;5072842;28;20215;-75
2022/08/19 07:59:17;;;;;;;;;;;20.10;99.90;;;;;;5073348;28;19919;-75
2022/08/19 08:01:42;;;;;;;;;;;20.10;99.90;;;;;;5071521;28;20223;-74
2022/08/19 08:09:38;;;;;;;;;;;20.30;99.90;;;;;;5074560;28;19927;-75
2022/08/19 08:12:06;;;;;;;;;;;20.40;99.90;;;;;;5072373;28;20223;-74
2022/08/19 08:14:32;;;;;;;;;;;20.40;99.90;;;;;;5072963;28;20231;-75
2022/08/19 08:16:58;;;;;;;;;;;20.50;99.90;;;;;;5106190;28;19925;-75
2022/08/19 08:19:25;;;;;;;;;;;20.60;99.90;;;;;;5073006;28;19921;-75
2022/08/19 08:21:54;;;;;;;;;;;20.60;99.90;;;;;;5105229;28;20482;-75
2022/08/19 08:24:20;;;;;;;;;;;20.70;99.90;;;;;;5072047;28;19918;-75
2022/08/19 08:26:46;;;;;;;;;;;20.90;99.90;;;;;;5072615;28;19939;-76
2022/08/19 08:29:12;;;;;;;;;;;21.00;99.90;;;;;;5070592;28;20471;-74
2022/08/19 08:31:39;;;;;;;;;;;21.00;99.90;;;;;;5072080;28;19916;-75
2022/08/19 08:34:04;;;;;;;;;;;21.10;99.90;;;;;;5073032;28;20011;-75
2022/08/19 08:36:33;;;;;;;;;;;21.20;99.90;;;;;;5073903;28;20015;-76
2022/08/19 08:38:59;;;;;;;;;;;21.30;99.90;;;;;;5071064;28;19962;-75
2022/08/19 08:41:34;;;;;;;;;;;21.30;99.90;;;;;;5072673;28;19931;-75
2022/08/19 08:44:04;;;;;;;;;;;21.30;99.90;;;;;;5069478;28;19913;-77
2022/08/19 08:46:41;;;;;;;;;;;21.30;99.90;;;;;;5073226;28;20008;-76
2022/08/19 08:49:11;;;;;;;;;;;21.40;99.90;;;;;;5073731;28;20302;-75
2022/08/19 08:51:55;;;;;;;;;;;21.40;99.90;;;;;;5072946;28;19920;-75
2022/08/19 08:54:23;;;;;;;;;;;21.40;99.90;;;;;;5072446;28;19999;-75
2022/08/19 08:56:49;;;;;;;;;;;21.60;99.90;;;;;;5072328;28;21819;-75
2022/08/19 08:59:21;;;;;;;;;;;21.70;99.90;;;;;;5071406;28;19912;-76
2022/08/19 09:01:48;;;;;;;;;;;21.80;99.90;;;;;;5071399;28;19927;-76
2022/08/19 09:04:14;;;;;;;;;;;22.00;99.90;;;;;;5069692;28;19917;-75
2022/08/19 09:07:03;;;;;;;;;;;22.10;99.90;;;;;;5071457;28;19943;-75
2022/08/19 09:09:39;;;;;;;;;;;22.30;99.90;;;;;;5070731;28;19917;-75
2022/08/19 09:12:10;;;;;;;;;;;22.90;99.90;;;;;;5070926;28;19912;-76
2022/08/19 09:14:45;;;;;;;;;;;23.40;99.90;;;;;;5071480;28;20296;-76
2022/08/19 09:17:12;;;;;;;;;;;24.00;99.90;;;;;;5055115;28;19925;-76
2022/08/19 09:19:53;;;;;;;;;;;24.40;99.90;;;;;;5072804;28;19917;-76
2022/08/19 09:22:21;;;;;;;;;;;24.60;99.90;;;;;;5073228;28;19963;-74
2022/08/19 09:24:48;;;;;;;;;;;24.80;99.90;;;;;;5069935;28;19912;-75
2022/08/19 09:27:13;;;;;;;;;;;24.80;99.90;;;;;;5074316;28;20335;-75
2022/08/19 09:29:39;;;;;;;;;;;24.80;99.90;;;;;;5074554;28;19912;-75
2022/08/19 09:32:05;;;;;;;;;;;24.80;99.90;;;;;;5073665;28;20356;-75
2022/08/19 09:34:31;;;;;;;;;;;24.90;99.90;;;;;;5106981;28;20220;-76
2022/08/19 09:36:58;;;;;;;;;;;24.80;99.90;;;;;;5068389;28;19966;-75
2022/08/19 09:39:24;;;;;;;;;;;25.00;99.90;;;;;;5071930;28;19927;-74
2022/08/19 09:41:49;;;;;;;;;;;25.20;99.90;;;;;;5073507;28;19908;-75
2022/08/19 09:44:16;;;;;;;;;;;25.40;99.90;;;;;;5074764;28;20271;-76
2022/08/19 09:46:43;;;;;;;;;;;25.50;99.90;;;;;;5070571;28;20207;-76
2022/08/19 09:49:10;;;;;;;;;;;25.80;99.90;;;;;;5071917;28;20015;-75
2022/08/19 09:51:36;;;;;;;;;;;25.80;99.90;;;;;;5071057;28;19908;-77
2022/08/19 09:54:03;;;;;;;;;;;25.50;99.90;;;;;;5062041;28;19969;-75
2022/08/19 09:56:30;;;;;;;;;;;25.40;99.90;;;;;;5070898;28;20352;-75
2022/08/19 09:58:57;;;;;;;;;;;25.50;99.90;;;;;;5069582;28;19912;-75
2022/08/19 10:01:24;;;;;;;;;;;25.60;99.90;;;;;;5073302;28;19923;-76
2022/08/19 10:03:52;;;;;;;;;;;25.70;99.90;;;;;;5073495;28;19970;-75
2022/08/19 10:06:18;;;;;;;;;;;25.60;99.90;;;;;;5095745;28;21102;-75
2022/08/19 10:08:44;;;;;;;;;;;25.40;99.90;;;;;;5068503;28;20329;-73
2022/08/19 10:11:10;;;;;;;;;;;25.10;99.90;;;;;;5072172;28;19920;-75
2022/08/19 10:13:36;;;;;;;;;;;24.80;99.90;;;;;;5071273;28;19912;-74
2022/08/19 10:16:07;;;;;;;;;;;24.60;99.90;;;;;;5070267;28;19924;-75
2022/08/19 10:18:34;;;;;;;;;;;24.50;99.90;;;;;;5071902;28;20219;-77
2022/08/19 10:21:11;;;;;;;;;;;24.50;99.90;;;;;;5068103;28;19924;-74
2022/08/19 10:23:38;;;;;;;;;;;24.50;99.90;;;;;;5071610;28;19917;-76
2022/08/19 10:26:05;;;;;;;;;;;24.50;99.90;;;;;;5071125;28;19993;-76
2022/08/19 10:28:32;;;;;;;;;;;24.50;99.90;;;;;;5069576;28;20006;-79
2022/08/19 10:30:58;;;;;;;;;;;24.90;99.90;;;;;;5064401;28;20300;-75
2022/08/19 10:33:24;;;;;;;;;;;25.10;99.90;;;;;;5069253;28;19951;-75
2022/08/19 10:35:59;;;;;;;;;;;25.00;99.90;;;;;;5071432;28;19916;-80
2022/08/19 10:38:24;;;;;;;;;;;24.90;99.90;;;;;;5104456;28;20322;-73
2022/08/19 10:40:50;;;;;;;;;;;24.70;99.90;;;;;;5070813;28;19912;-74
2022/08/19 10:43:17;;;;;;;;;;;24.40;99.90;;;;;;5072490;28;19915;-74
2022/08/19 10:45:42;;;;;;;;;;;24.30;99.90;;;;;;5067929;28;19920;-74
2022/08/19 10:48:08;;;;;;;;;;;24.10;99.90;;;;;;5070403;28;20223;-75
2022/08/19 10:53:19;;;;;;;;;;;23.90;99.90;;;;;;5075085;28;19927;-73
2022/08/19 10:58:29;;;;;;;;;;;23.70;99.90;;;;;;5075719;28;19923;-73
2022/08/19 11:00:56;;;;;;;;;;;23.60;99.90;;;;;;5072736;28;19913;-75
2022/08/19 11:03:22;;;;;;;;;;;23.50;99.90;;;;;;5074495;28;20331;-72
2022/08/19 11:09:05;;;;;;;;;;;23.50;99.90;;;;;;5068334;28;20704;-74
2022/08/19 11:11:32;;;;;;;;;;;23.50;99.90;;;;;;5077892;28;19921;-75
2022/08/19 11:13:58;;;;;;;;;;;23.60;99.90;;;;;;5073818;28;19912;-73
2022/08/19 11:16:25;;;;;;;;;;;23.90;99.90;;;;;;5073048;28;19921;-76
2022/08/19 11:18:53;;;;;;;;;;;24.10;99.90;;;;;;5075541;28;19958;-74
2022/08/19 11:21:18;;;;;;;;;;;24.20;99.90;;;;;;5075616;28;20377;-72
2022/08/19 11:23:45;;;;;;;;;;;24.20;99.90;;;;;;5071876;28;19912;-74
2022/08/19 11:26:11;;;;;;;;;;;24.20;99.90;;;;;;5072638;28;20019;-76
2022/08/19 11:28:37;;;;;;;;;;;24.10;99.90;;;;;;5075284;28;19960;-74
2022/08/19 11:31:03;;;;;;;;;;;24.10;99.90;;;;;;5072874;28;19955;-74
2022/08/19 11:33:29;;;;;;;;;;;24.10;99.90;;;;;;5074643;28;19955;-74
2022/08/19 11:35:57;;;;;;;;;;;24.20;99.90;;;;;;5073876;28;19920;-74
2022/08/19 11:38:22;;;;;;;;;;;24.30;99.90;;;;;;5073665;28;20010;-73
2022/08/19 11:40:58;;;;;;;;;;;24.60;99.90;;;;;;5070664;28;20654;-73
2022/08/19 11:43:26;;;;;;;;;;;25.00;99.90;;;;;;5074384;28;19995;-72
2022/08/19 11:46:16;;;;;;;;;;;25.10;99.90;;;;;;5075438;28;19924;-74
2022/08/19 11:48:42;;;;;;;;;;;25.20;99.90;;;;;;5072135;28;19928;-73
2022/08/19 11:51:13;;;;;;;;;;;25.20;99.90;;;;;;5072361;28;19913;-73
2022/08/19 11:53:39;;;;;;;;;;;25.00;99.90;;;;;;5072696;28;19917;-73
2022/08/19 11:56:05;;;;;;;;;;;24.80;99.90;;;;;;5072994;28;20011;-75
2022/08/19 11:58:31;;;;;;;;;;;24.70;99.90;;;;;;5071195;28;19956;-75
2022/08/19 12:00:56;;;;;;;;;;;24.50;99.90;;;;;;5071343;28;20275;-73
2022/08/19 12:03:22;;;;;;;;;;;24.40;99.90;;;;;;5072849;28;19920;-74
2022/08/19 12:05:49;;;;;;;;;;;24.20;99.90;;;;;;5075293;28;19920;-72
2022/08/19 12:08:18;;;;;;;;;;;24.10;99.90;;;;;;5070254;28;20303;-73
2022/08/19 12:11:17;;;;;;;;;;;24.00;99.90;;;;;;5070780;28;20346;-73
2022/08/19 12:13:47;;;;;;;;;;;23.90;99.90;;;;;;5071123;28;19916;-74
2022/08/19 12:16:24;;;;;;;;;;;23.80;99.90;;;;;;5075939;28;19916;-74
2022/08/19 12:18:51;;;;;;;;;;;23.70;99.90;;;;;;5071196;28;20007;-75
2022/08/19 12:21:20;;;;;;;;;;;23.70;99.90;;;;;;5075439;28;19970;-75
2022/08/19 12:23:46;;;;;;;;;;;23.60;99.90;;;;;;5071711;28;19939;-75
2022/08/19 12:26:16;;;;;;;;;;;23.60;99.90;;;;;;5067343;28;19913;-75
2022/08/19 12:28:42;;;;;;;;;;;23.60;99.90;;;;;;5067493;28;19923;-75
2022/08/19 12:31:07;;;;;;;;;;;23.60;99.90;;;;;;5075385;28;19916;-75
2022/08/19 12:33:33;;;;;;;;;;;23.50;99.90;;;;;;5076298;28;19916;-75
2022/08/19 12:36:05;;;;;;;;;;;23.50;99.90;;;;;;5075223;28;19935;-76
2022/08/19 12:38:34;;;;;;;;;;;23.40;99.90;;;;;;5073284;28;20357;-75
2022/08/19 12:41:00;;;;;;;;;;;23.40;99.90;;;;;;5075309;28;19913;-75
2022/08/19 12:43:30;;;;;;;;;;;23.30;99.90;;;;;;5074205;28;19924;-75
2022/08/19 12:45:55;;;;;;;;;;;23.30;99.90;;;;;;5075923;28;19908;-75
2022/08/19 12:48:23;;;;;;;;;;;23.40;99.90;;;;;;5074679;28;19920;-75
2022/08/19 12:50:50;;;;;;;;;;;23.50;99.90;;;;;;5068641;28;19973;-75
2022/08/19 12:53:18;;;;;;;;;;;23.60;99.90;;;;;;5101336;28;19916;-76
2022/08/19 12:55:45;;;;;;;;;;;23.70;99.90;;;;;;5074167;28;19920;-75
2022/08/19 12:58:12;;;;;;;;;;;23.80;99.90;;;;;;5073298;28;20314;-75
2022/08/19 13:00:39;;;;;;;;;;;23.80;99.90;;;;;;5069622;28;19917;-73
2022/08/19 13:03:06;;;;;;;;;;;23.90;99.90;;;;;;5072906;28;20306;-73
2022/08/19 13:05:34;;;;;;;;;;;23.90;99.90;;;;;;5076637;28;19932;-74
2022/08/19 13:08:05;;;;;;;;;;;24.00;99.90;;;;;;5071849;28;19924;-74
2022/08/19 13:10:34;;;;;;;;;;;24.10;99.90;;;;;;5089265;28;19919;-75
2022/08/19 13:13:01;;;;;;;;;;;24.10;99.90;;;;;;5055677;28;19981;-75
2022/08/19 13:15:28;;;;;;;;;;;24.20;99.90;;;;;;5071957;28;19916;-75
2022/08/19 13:17:55;;;;;;;;;;;24.30;99.90;;;;;;5089241;28;19920;-74
2022/08/19 13:20:21;;;;;;;;;;;24.40;99.90;;;;;;5067897;28;19912;-75
2022/08/19 13:22:48;;;;;;;;;;;24.40;99.90;;;;;;5068294;28;20011;-77
2022/08/19 13:25:19;;;;;;;;;;;24.50;99.90;;;;;;5067486;28;19931;-73
2022/08/19 13:27:55;;;;;;;;;;;24.50;99.90;;;;;;5087066;28;19946;-75
2022/08/19 13:33:11;;;;;;;;;;;24.70;99.90;;;;;;5087148;28;20058;-75
2022/08/19 13:35:40;;;;;;;;;;;24.80;99.90;;;;;;5087436;28;19920;-73
2022/08/19 13:38:10;;;;;;;;;;;24.80;99.90;;;;;;5085620;28;19916;-75
2022/08/19 13:40:36;;;;;;;;;;;24.80;99.90;;;;;;5086274;28;19923;-74
2022/08/19 13:43:05;;;;;;;;;;;24.90;99.90;;;;;;5084742;28;19974;-76
2022/08/19 13:45:40;;;;;;;;;;;24.90;99.90;;;;;;5087410;28;19983;-73
2022/08/19 13:48:08;;;;;;;;;;;24.80;99.90;;;;;;5088024;28;19917;-75
2022/08/19 13:50:46;;;;;;;;;;;24.80;99.90;;;;;;5066302;28;20219;-74
2022/08/19 13:53:14;;;;;;;;;;;24.80;99.90;;;;;;5087025;28;20673;-75
2022/08/19 13:55:43;;;;;;;;;;;24.80;99.90;;;;;;5087851;28;19912;-74
2022/08/19 13:58:10;;;;;;;;;;;25.00;99.90;;;;;;5086636;28;19916;-74
2022/08/19 14:00:40;;;;;;;;;;;25.10;99.90;;;;;;5085608;28;19916;-79
2022/08/19 14:03:06;;;;;;;;;;;25.10;99.90;;;;;;5071347;28;19920;-75
2022/08/19 14:05:33;;;;;;;;;;;25.20;99.90;;;;;;5087194;28;20098;-75
2022/08/19 14:08:00;;;;;;;;;;;25.10;99.90;;;;;;5084207;28;19931;-75
2022/08/19 14:10:28;;;;;;;;;;;25.10;99.90;;;;;;5065380;28;20522;-75
2022/08/19 14:12:55;;;;;;;;;;;25.00;99.90;;;;;;5084212;28;19974;-76
2022/08/19 14:15:21;;;;;;;;;;;25.00;99.90;;;;;;5089279;28;19912;-74
2022/08/19 14:17:48;;;;;;;;;;;25.00;99.90;;;;;;5072890;28;20475;-75
2022/08/19 14:20:16;;;;;;;;;;;25.00;99.90;;;;;;5090261;28;19913;-74
2022/08/19 14:22:44;;;;;;;;;;;25.00;99.90;;;;;;5086047;28;19923;-74
2022/08/19 14:25:33;;;;;;;;;;;24.90;99.90;;;;;;5052579;28;20282;-74
2022/08/19 14:28:00;;;;;;;;;;;24.90;99.90;;;;;;5082830;28;20003;-74
2022/08/19 14:30:33;;;;;;;;;;;24.90;99.90;;;;;;5084631;28;19928;-73
2022/08/19 14:33:00;;;;;;;;;;;25.00;99.90;;;;;;5075232;28;20007;-73
2022/08/19 14:35:27;;;;;;;;;;;25.00;99.90;;;;;;5092288;28;19919;-75
2022/08/19 14:37:55;;;;;;;;;;;25.00;99.90;;;;;;5090055;28;19912;-77
2022/08/19 14:40:25;;;;;;;;;;;25.10;99.90;;;;;;5070150;28;20295;-78
2022/08/19 14:42:58;;;;;;;;;;;25.20;99.90;;;;;;5087072;28;19924;-75